Αρχική σελίδα
METAR-TAF:

METAR-TAF

Αεροδρόμια :

NWS Office

Ματζούρο, Νήσοι Μάρσαλ

γεωγραφικό πλάτος: 07-05N, γεωγραφικό μήκος: 171-12E, υψόμετρο: 4 μ

Παρών καιρός

Η αναφορά έγινε 15 λεπτά πριν, στις 08:57 UTC
Άνεμος 4 kt από Α
Θερμοκρασία 29°C
Υγρασία 79%
Πίεση 1010 hPa
Ορατότητα: 24.1 χλμ
Λίγα νέφη σε ύψος 1500 πόδια
Διάσπαρτα νέφη σε ύψος 5000 πόδια
Αρκετά νέφη σε ύψος 12000 πόδια
Νεφοσκεπής σε ύψος 30000 πόδια

METAR: PKMR 260857Z 08004KT 15SM FEW015 SCT050 BKN120 OVC300 29/25 A2983 RMK SLP102 8/838 T02850252 52017

Χρόνος: 21:12 (09:12 UTC)


TAF: λείπει

Μετεωρολογικές αναφορές και προγνώσεις για περισσότερα από 4000 αεροδρόμια (δελτία METAR και TAF).

Οι διαθέσιμοι σταθμοί απεικονίζονται στο χάρτη με κίτρινες και κόκκινες κουκκίδες.

Μετακινήστε το ποντίκι πάνω από τις κουκκίδες για να δείτε το όνομα του σταθμού.

Στη συνέχεια, κάντε κλικ για να δείτε τις μετεωρολογικές αναφορές και τις προγνώσεις καιρού.

Για να αλλάξετε το χάρτη: κάντε κλικ στα πράσινα κουμπιά με τον μαύρο σταυρό για να ζουμάρετε, στο πράσινο κουμπί με την παύλα για να αφαιρέσετε το ζουμ ή στα πράσινα βέλη για να αντιπαραβάλλετε χάρτες.


METAR-TAF: